Flight Track Log - Related Links

Times and Time Zones

All times are in EDT time to prevent confusion due to time zone crossing. See the ASQ6115 flight status page for this flight to view local times or setup timezone preferences in your user account.

Time Position Orientation Groundspeed Altitude Reporting Facility
EDT Latitude Longitude Course Direction KTS MPH feet Rate Location/Type
Wed 01:57:26 PM 29.9639 -95.3433 190° South 155 178 800  Level Houston Center
Wed 01:58:33 PM 29.9167 -95.2886 135° Southeast 226 260 3,200 2,000 Climbing Houston Center
Wed 01:59:11 PM 29.8950 -95.2594 131° Southeast 214 246 4,300 2,357 Climbing Houston Center
Wed 01:59:29 PM 29.8739 -95.2336 133° Southeast 265 305 5,400 2,806 Climbing Houston Center
Wed 02:00:00 PM 29.6917 -95.3889 191° South  Level FlightAware Approximate
Wed 02:00:13 PM 29.8444 -95.1964 132° Southeast 258 297 7,200  Level Houston Center
Wed 02:00:36 PM 29.8175 -95.1683 138° Southeast 266 306 8,300 2,419 Climbing Houston Center
Wed 02:01:00 PM 29.5949 -95.4104 191° South  Level FlightAware Approximate
Wed 02:01:15 PM 29.7822 -95.1608 170° South 265 305 9,700  Level Houston Center
Wed 02:01:37 PM 29.7450 -95.1578 176° South 268 308 10,500 1,452 Climbing Houston Center
Wed 02:02:00 PM 29.4979 -95.4304 190° South  Level FlightAware Approximate
Wed 02:02:17 PM 29.7047 -95.1567 179° South 273 314 11,200  Level Houston Center
Wed 02:03:19 PM 29.6156 -95.1861 196° South 315 362 12,600 1,500 Climbing Houston Center
Wed 02:04:21 PM 29.5231 -95.2350 205° Southwest 344 396 14,300 1,694 Climbing Houston Center
Wed 02:05:23 PM 29.4483 -95.3044 219° Southwest 344 396 16,100 1,694 Climbing Houston Center
Wed 02:06:25 PM 29.3731 -95.3744 219° Southwest 347 399 17,800 1,839 Climbing Houston Center
Wed 02:07:27 PM 29.2831 -95.4572 219° Southwest 347 399 19,900 1,902 Climbing Houston Center
Wed 02:08:28 PM 29.2117 -95.5333 223° Southwest 352 405 21,700 1,463 Climbing Houston Center
Wed 02:09:30 PM 29.1317 -95.5994 216° Southwest 353 406 22,900 1,065 Climbing Houston Center
Wed 02:10:32 PM 29.0494 -95.6742 218° Southwest 375 432 23,900 968 Climbing Houston Center
Wed 02:11:34 PM 28.9667 -95.7506 219° Southwest 384 442 24,900 968 Climbing Houston Center
Wed 02:12:36 PM 28.8819 -95.8297 219° Southwest 393 452 25,900 532 Climbing Houston Center
Wed 02:13:38 PM 28.7744 -95.9269 218° Southwest 410 472 26,000 48 Climbing Houston Center
Wed 02:14:41 PM 28.6844 -96.0117 220° Southwest 429 494 26,000  Level Houston Center
Wed 02:15:42 PM 28.5881 -96.0994 219° Southwest 440 506 26,000  Level Houston Center
Wed 02:16:44 PM 28.4931 -96.1847 218° Southwest 436 502 26,000  Level Houston Center
Wed 02:17:48 PM 28.3981 -96.2708 219° Southwest 435 501 26,000  Level Houston Center
Wed 02:18:49 PM 28.2856 -96.3739 219° Southwest 433 498 26,000  Level Houston Center
Wed 02:19:51 PM 28.1925 -96.4581 219° Southwest 429 494 26,000 -48 Level Houston Center
Wed 02:20:54 PM 28.0972 -96.5431 218° Southwest 431 496 25,900  Descending Houston Center
Wed 02:21:55 PM 28.0033 -96.6278 219° Southwest 431 496 26,000 49 Climbing Houston Center
Wed 02:22:57 PM 27.9092 -96.7131 219° Southwest 432 497 26,000  Level Houston Center
Wed 02:23:59 PM 27.8144 -96.7978 218° Southwest 432 497 26,000  Level Houston Center
Wed 02:25:03 PM 27.7206 -96.8822 219° Southwest 432 497 26,000  Level Houston Center
Wed 02:26:03 PM 27.6067 -96.9828 218° Southwest 433 498 26,000  Level Houston Center
Wed 02:27:05 PM 27.5117 -97.0664 218° Southwest 432 497 26,000  Level Houston Center
Wed 02:28:08 PM 27.4222 -97.1467 219° Southwest 431 496 26,000  Level Houston Center
Wed 02:29:10 PM 27.3275 -97.2314 218° Southwest 433 498 26,000 -484 Level Houston Center
Wed 02:30:12 PM 27.2144 -97.3300 218° Southwest 430 495 25,000 -1,355 Descending Houston Center
Wed 02:31:14 PM 27.1203 -97.4158 219° Southwest 425 489 23,200 -1,742 Descending Houston Center
Wed 02:32:16 PM 27.0264 -97.4975 218° Southwest 426 490 21,400 -1,786 Descending Houston Center
Wed 02:32:38 PM 26.9917 -97.5292 219° Southwest 421 484 20,700 -1,839 Descending Houston Center
Wed 02:33:18 PM 26.9297 -97.5817 217° Southwest 429 494 19,500 -1,818 Descending Houston Center
Wed 02:33:44 PM 26.8878 -97.6183 218° Southwest 403 464 18,700 -1,742 Descending Houston Center
Wed 02:34:20 PM 26.8428 -97.6586 219° Southwest 402 463 17,700 -1,672 Descending Houston Center
Wed 02:34:45 PM 26.8036 -97.6975 222° Southwest 394 453 17,000 -1,905 Descending Houston Center
Wed 02:35:23 PM 26.7597 -97.7489 226° Southwest 363 418 15,700 -2,000 Descending Houston Center
Wed 02:35:45 PM 26.7308 -97.7825 226° Southwest 377 434 15,000 -1,935 Descending Houston Center
Wed 02:36:25 PM 26.6875 -97.8300 224° Southwest 365 420 13,700 -1,967 Descending Houston Center
Wed 02:36:46 PM 26.6592 -97.8597 223° Southwest 354 407 13,000 -1,839 Descending Houston Center
Wed 02:37:27 PM 26.6144 -97.9108 226° Southwest 346 398 11,800 -1,770 Descending Houston Center
Wed 02:37:47 PM 26.5933 -97.9342 225° Southwest 336 387 11,200 -1,742 Descending Houston Center
Wed 02:38:29 PM 26.5542 -97.9778 225° Southwest 313 360 10,000 -1,800 Descending Houston Center
Wed 02:38:47 PM 26.5350 -97.9978 223° Southwest 296 341 9,400 -1,839 Descending Houston Center
Wed 02:39:31 PM 26.4950 -98.0433 226° Southwest 286 329 8,100 -1,770 Descending Houston Center
Wed 02:39:48 PM 26.4822 -98.0561 222° Southwest 274 315 7,600 -1,742 Descending Houston Center
Wed 02:40:33 PM 26.4436 -98.1008 226° Southwest 267 307 6,300 -1,800 Descending Houston Center
Wed 02:40:48 PM 26.4314 -98.1142 224° Southwest 261 300 5,800 -1,935 Descending Houston Center
Wed 02:41:35 PM 26.3900 -98.1600 225° Southwest 255 293 4,300 -1,800 Descending Houston Center
Wed 02:42:38 PM 26.3414 -98.2144 225° Southwest 250 288 2,500 -1,714 Descending Houston Center

Login

Don't have an account? Register now (free) for customized features, flight alerts, and more!